sensor_id;sensor_type;location;lat;lon;timestamp;P1;durP1;ratioP1;P2;durP2;ratioP2
13641;SDS011;6894;52.196;9.904;2023-04-24T00:02:17;0.97;;;0.60;;
13641;SDS011;6894;52.196;9.904;2023-04-24T00:04:44;0.83;;;0.60;;
13641;SDS011;6894;52.196;9.904;2023-04-24T00:07:11;1.03;;;0.50;;
13641;SDS011;6894;52.196;9.904;2023-04-24T00:09:38;0.53;;;0.50;;
13641;SDS011;6894;52.196;9.904;2023-04-24T00:12:04;1.40;;;0.67;;
13641;SDS011;6894;52.196;9.904;2023-04-24T00:14:31;0.50;;;0.50;;
13641;SDS011;6894;52.196;9.904;2023-04-24T00:17:01;0.60;;;0.60;;
13641;SDS011;6894;52.196;9.904;2023-04-24T00:19:28;0.83;;;0.60;;
13641;SDS011;6894;52.196;9.904;2023-04-24T00:21:55;0.60;;;0.60;;
13641;SDS011;6894;52.196;9.904;2023-04-24T00:24:22;1.03;;;0.73;;
13641;SDS011;6894;52.196;9.904;2023-04-24T00:26:49;2.00;;;0.63;;
13641;SDS011;6894;52.196;9.904;2023-04-24T00:29:15;0.70;;;0.63;;
13641;SDS011;6894;52.196;9.904;2023-04-24T00:31:42;1.27;;;0.60;;
13641;SDS011;6894;52.196;9.904;2023-04-24T00:34:10;1.10;;;0.90;;
13641;SDS011;6894;52.196;9.904;2023-04-24T00:36:37;0.73;;;0.73;;
13641;SDS011;6894;52.196;9.904;2023-04-24T00:39:04;2.57;;;1.47;;
13641;SDS011;6894;52.196;9.904;2023-04-24T00:41:33;1.37;;;0.70;;
13641;SDS011;6894;52.196;9.904;2023-04-24T00:44:00;0.80;;;0.80;;
13641;SDS011;6894;52.196;9.904;2023-04-24T00:46:27;2.40;;;0.90;;
13641;SDS011;6894;52.196;9.904;2023-04-24T00:48:54;1.33;;;1.07;;
13641;SDS011;6894;52.196;9.904;2023-04-24T00:51:23;1.40;;;0.70;;
13641;SDS011;6894;52.196;9.904;2023-04-24T00:53:50;0.73;;;0.73;;
13641;SDS011;6894;52.196;9.904;2023-04-24T00:56:17;1.43;;;0.80;;
13641;SDS011;6894;52.196;9.904;2023-04-24T00:58:44;1.40;;;0.77;;
13641;SDS011;6894;52.196;9.904;2023-04-24T01:01:11;0.93;;;0.67;;
13641;SDS011;6894;52.196;9.904;2023-04-24T01:03:39;1.17;;;0.93;;
13641;SDS011;6894;52.196;9.904;2023-04-24T01:06:06;1.37;;;0.80;;
13641;SDS011;6894;52.196;9.904;2023-04-24T01:08:36;1.10;;;0.70;;
13641;SDS011;6894;52.196;9.904;2023-04-24T01:11:04;1.07;;;0.90;;
13641;SDS011;6894;52.196;9.904;2023-04-24T01:13:31;0.93;;;0.70;;
13641;SDS011;6894;52.196;9.904;2023-04-24T01:15:59;1.53;;;0.83;;
13641;SDS011;6894;52.196;9.904;2023-04-24T01:18:26;1.03;;;0.70;;
13641;SDS011;6894;52.196;9.904;2023-04-24T01:20:54;0.97;;;0.80;;
13641;SDS011;6894;52.196;9.904;2023-04-24T01:23:25;1.43;;;0.70;;
13641;SDS011;6894;52.196;9.904;2023-04-24T01:25:52;3.27;;;0.80;;
13641;SDS011;6894;52.196;9.904;2023-04-24T01:28:19;1.00;;;0.70;;
13641;SDS011;6894;52.196;9.904;2023-04-24T01:30:46;3.00;;;0.83;;
13641;SDS011;6894;52.196;9.904;2023-04-24T01:33:13;0.87;;;0.77;;
13641;SDS011;6894;52.196;9.904;2023-04-24T01:35:39;0.80;;;0.60;;
13641;SDS011;6894;52.196;9.904;2023-04-24T01:38:06;1.20;;;0.90;;
13641;SDS011;6894;52.196;9.904;2023-04-24T01:40:34;0.77;;;0.73;;
13641;SDS011;6894;52.196;9.904;2023-04-24T01:43:02;1.00;;;0.63;;
13641;SDS011;6894;52.196;9.904;2023-04-24T01:45:29;1.23;;;0.80;;
13641;SDS011;6894;52.196;9.904;2023-04-24T01:47:55;1.43;;;0.70;;
13641;SDS011;6894;52.196;9.904;2023-04-24T01:50:23;1.37;;;0.90;;
13641;SDS011;6894;52.196;9.904;2023-04-24T01:52:49;2.27;;;0.63;;
13641;SDS011;6894;52.196;9.904;2023-04-24T01:55:16;1.50;;;0.70;;
13641;SDS011;6894;52.196;9.904;2023-04-24T01:57:44;0.80;;;0.60;;
13641;SDS011;6894;52.196;9.904;2023-04-24T02:00:11;1.10;;;0.87;;
13641;SDS011;6894;52.196;9.904;2023-04-24T02:02:39;0.57;;;0.57;;
13641;SDS011;6894;52.196;9.904;2023-04-24T02:05:07;0.60;;;0.60;;
13641;SDS011;6894;52.196;9.904;2023-04-24T02:07:34;1.10;;;0.60;;
13641;SDS011;6894;52.196;9.904;2023-04-24T02:10:01;1.87;;;0.60;;
13641;SDS011;6894;52.196;9.904;2023-04-24T02:12:29;0.63;;;0.63;;
13641;SDS011;6894;52.196;9.904;2023-04-24T02:14:57;0.50;;;0.50;;
13641;SDS011;6894;52.196;9.904;2023-04-24T02:17:24;1.27;;;0.60;;
13641;SDS011;6894;52.196;9.904;2023-04-24T02:19:51;1.37;;;0.70;;
13641;SDS011;6894;52.196;9.904;2023-04-24T02:22:17;0.73;;;0.50;;
13641;SDS011;6894;52.196;9.904;2023-04-24T02:24:44;0.57;;;0.50;;
13641;SDS011;6894;52.196;9.904;2023-04-24T02:27:11;2.73;;;0.80;;
13641;SDS011;6894;52.196;9.904;2023-04-24T02:29:40;0.93;;;0.60;;
13641;SDS011;6894;52.196;9.904;2023-04-24T02:32:08;0.50;;;0.50;;
13641;SDS011;6894;52.196;9.904;2023-04-24T02:34:36;0.60;;;0.60;;
13641;SDS011;6894;52.196;9.904;2023-04-24T02:37:03;1.57;;;0.60;;
13641;SDS011;6894;52.196;9.904;2023-04-24T02:39:30;2.20;;;0.60;;
13641;SDS011;6894;52.196;9.904;2023-04-24T02:41:57;1.27;;;0.70;;
13641;SDS011;6894;52.196;9.904;2023-04-24T02:44:24;0.73;;;0.73;;
13641;SDS011;6894;52.196;9.904;2023-04-24T02:46:50;1.00;;;0.70;;
13641;SDS011;6894;52.196;9.904;2023-04-24T02:49:18;1.23;;;1.00;;
13641;SDS011;6894;52.196;9.904;2023-04-24T02:51:45;1.40;;;0.67;;
13641;SDS011;6894;52.196;9.904;2023-04-24T02:54:12;0.60;;;0.50;;
13641;SDS011;6894;52.196;9.904;2023-04-24T02:56:39;0.50;;;0.50;;
13641;SDS011;6894;52.196;9.904;2023-04-24T02:59:06;1.23;;;0.60;;
13641;SDS011;6894;52.196;9.904;2023-04-24T03:01:32;2.97;;;0.67;;
13641;SDS011;6894;52.196;9.904;2023-04-24T03:03:59;0.40;;;0.40;;
13641;SDS011;6894;52.196;9.904;2023-04-24T03:06:27;1.07;;;0.63;;
13641;SDS011;6894;52.196;9.904;2023-04-24T03:08:56;0.70;;;0.50;;
13641;SDS011;6894;52.196;9.904;2023-04-24T03:11:23;1.07;;;0.50;;
13641;SDS011;6894;52.196;9.904;2023-04-24T03:13:50;1.57;;;0.60;;
13641;SDS011;6894;52.196;9.904;2023-04-24T03:16:16;1.40;;;0.47;;
13641;SDS011;6894;52.196;9.904;2023-04-24T03:18:43;0.50;;;0.50;;
13641;SDS011;6894;52.196;9.904;2023-04-24T03:21:10;0.40;;;0.40;;
13641;SDS011;6894;52.196;9.904;2023-04-24T03:23:39;2.67;;;0.60;;
13641;SDS011;6894;52.196;9.904;2023-04-24T03:26:06;0.60;;;0.40;;
13641;SDS011;6894;52.196;9.904;2023-04-24T03:28:32;0.83;;;0.50;;
13641;SDS011;6894;52.196;9.904;2023-04-24T03:30:59;0.63;;;0.50;;
13641;SDS011;6894;52.196;9.904;2023-04-24T03:33:26;0.50;;;0.40;;
13641;SDS011;6894;52.196;9.904;2023-04-24T03:35:53;0.40;;;0.40;;
13641;SDS011;6894;52.196;9.904;2023-04-24T03:38:19;1.37;;;0.70;;
13641;SDS011;6894;52.196;9.904;2023-04-24T03:40:48;0.30;;;0.30;;
13641;SDS011;6894;52.196;9.904;2023-04-24T03:43:14;2.07;;;0.37;;
13641;SDS011;6894;52.196;9.904;2023-04-24T03:45:41;0.40;;;0.40;;
13641;SDS011;6894;52.196;9.904;2023-04-24T03:48:08;1.90;;;0.70;;
13641;SDS011;6894;52.196;9.904;2023-04-24T03:50:35;1.17;;;0.40;;
13641;SDS011;6894;52.196;9.904;2023-04-24T03:53:01;0.27;;;0.27;;
13641;SDS011;6894;52.196;9.904;2023-04-24T03:55:28;0.30;;;0.30;;
13641;SDS011;6894;52.196;9.904;2023-04-24T03:57:56;1.00;;;0.40;;
13641;SDS011;6894;52.196;9.904;2023-04-24T04:00:24;0.43;;;0.40;;
13641;SDS011;6894;52.196;9.904;2023-04-24T04:02:51;0.30;;;0.20;;
13641;SDS011;6894;52.196;9.904;2023-04-24T04:05:17;2.43;;;0.40;;
13641;SDS011;6894;52.196;9.904;2023-04-24T04:07:44;0.37;;;0.33;;
13641;SDS011;6894;52.196;9.904;2023-04-24T04:10:11;0.53;;;0.37;;
13641;SDS011;6894;52.196;9.904;2023-04-24T04:12:38;1.00;;;0.37;;
13641;SDS011;6894;52.196;9.904;2023-04-24T04:15:06;0.30;;;0.30;;
13641;SDS011;6894;52.196;9.904;2023-04-24T04:17:33;0.57;;;0.40;;
13641;SDS011;6894;52.196;9.904;2023-04-24T04:20:00;1.20;;;0.33;;
13641;SDS011;6894;52.196;9.904;2023-04-24T04:22:30;0.93;;;0.30;;
13641;SDS011;6894;52.196;9.904;2023-04-24T04:24:57;1.90;;;0.30;;
13641;SDS011;6894;52.196;9.904;2023-04-24T04:27:24;0.40;;;0.30;;
13641;SDS011;6894;52.196;9.904;2023-04-24T04:29:51;0.60;;;0.40;;
13641;SDS011;6894;52.196;9.904;2023-04-24T04:32:19;0.90;;;0.50;;
13641;SDS011;6894;52.196;9.904;2023-04-24T04:34:46;1.20;;;0.50;;
13641;SDS011;6894;52.196;9.904;2023-04-24T04:37:14;1.17;;;0.40;;
13641;SDS011;6894;52.196;9.904;2023-04-24T04:39:41;0.80;;;0.30;;
13641;SDS011;6894;52.196;9.904;2023-04-24T04:42:08;0.20;;;0.20;;
13641;SDS011;6894;52.196;9.904;2023-04-24T04:44:34;0.50;;;0.50;;
13641;SDS011;6894;52.196;9.904;2023-04-24T04:47:03;0.60;;;0.37;;
13641;SDS011;6894;52.196;9.904;2023-04-24T04:49:32;0.43;;;0.33;;
13641;SDS011;6894;52.196;9.904;2023-04-24T04:51:59;0.83;;;0.50;;
13641;SDS011;6894;52.196;9.904;2023-04-24T04:54:26;0.87;;;0.70;;
13641;SDS011;6894;52.196;9.904;2023-04-24T04:56:52;0.60;;;0.53;;
13641;SDS011;6894;52.196;9.904;2023-04-24T04:59:19;1.07;;;0.40;;
13641;SDS011;6894;52.196;9.904;2023-04-24T05:01:46;1.93;;;0.60;;
13641;SDS011;6894;52.196;9.904;2023-04-24T05:04:13;0.40;;;0.30;;
13641;SDS011;6894;52.196;9.904;2023-04-24T05:06:41;0.40;;;0.40;;
13641;SDS011;6894;52.196;9.904;2023-04-24T05:09:08;0.57;;;0.40;;
13641;SDS011;6894;52.196;9.904;2023-04-24T05:11:35;0.83;;;0.40;;
13641;SDS011;6894;52.196;9.904;2023-04-24T05:14:01;1.73;;;0.50;;
13641;SDS011;6894;52.196;9.904;2023-04-24T05:16:28;2.10;;;1.13;;
13641;SDS011;6894;52.196;9.904;2023-04-24T05:18:55;1.07;;;0.40;;
13641;SDS011;6894;52.196;9.904;2023-04-24T05:21:22;1.27;;;0.57;;
13641;SDS011;6894;52.196;9.904;2023-04-24T05:23:50;0.50;;;0.30;;
13641;SDS011;6894;52.196;9.904;2023-04-24T05:26:17;1.43;;;0.53;;
13641;SDS011;6894;52.196;9.904;2023-04-24T05:28:44;0.90;;;0.50;;
13641;SDS011;6894;52.196;9.904;2023-04-24T05:31:11;0.80;;;0.30;;
13641;SDS011;6894;52.196;9.904;2023-04-24T05:33:38;1.27;;;0.60;;
13641;SDS011;6894;52.196;9.904;2023-04-24T05:36:05;0.40;;;0.40;;
13641;SDS011;6894;52.196;9.904;2023-04-24T05:38:32;0.63;;;0.30;;
13641;SDS011;6894;52.196;9.904;2023-04-24T05:41:01;0.83;;;0.33;;
13641;SDS011;6894;52.196;9.904;2023-04-24T05:43:27;0.50;;;0.50;;
13641;SDS011;6894;52.196;9.904;2023-04-24T05:45:54;0.97;;;0.50;;
13641;SDS011;6894;52.196;9.904;2023-04-24T05:48:21;0.63;;;0.50;;
13641;SDS011;6894;52.196;9.904;2023-04-24T05:50:48;1.30;;;0.30;;
13641;SDS011;6894;52.196;9.904;2023-04-24T05:53:15;0.60;;;0.40;;
13641;SDS011;6894;52.196;9.904;2023-04-24T05:55:42;0.60;;;0.40;;
13641;SDS011;6894;52.196;9.904;2023-04-24T05:58:11;0.30;;;0.20;;
13641;SDS011;6894;52.196;9.904;2023-04-24T06:00:38;1.13;;;0.30;;
13641;SDS011;6894;52.196;9.904;2023-04-24T06:03:07;0.43;;;0.40;;
13641;SDS011;6894;52.196;9.904;2023-04-24T06:05:34;1.20;;;0.40;;
13641;SDS011;6894;52.196;9.904;2023-04-24T06:08:01;0.37;;;0.30;;
13641;SDS011;6894;52.196;9.904;2023-04-24T06:10:28;2.00;;;0.40;;
13641;SDS011;6894;52.196;9.904;2023-04-24T06:12:54;1.30;;;0.30;;
13641;SDS011;6894;52.196;9.904;2023-04-24T06:15:26;0.40;;;0.30;;
13641;SDS011;6894;52.196;9.904;2023-04-24T06:17:55;0.20;;;0.20;;
13641;SDS011;6894;52.196;9.904;2023-04-24T06:20:22;0.40;;;0.40;;
13641;SDS011;6894;52.196;9.904;2023-04-24T06:22:49;0.20;;;0.20;;
13641;SDS011;6894;52.196;9.904;2023-04-24T06:25:16;1.90;;;0.40;;
13641;SDS011;6894;52.196;9.904;2023-04-24T06:27:42;0.30;;;0.30;;
13641;SDS011;6894;52.196;9.904;2023-04-24T06:30:09;0.50;;;0.40;;
13641;SDS011;6894;52.196;9.904;2023-04-24T06:32:38;0.70;;;0.50;;
13641;SDS011;6894;52.196;9.904;2023-04-24T06:35:05;0.70;;;0.70;;
13641;SDS011;6894;52.196;9.904;2023-04-24T06:37:34;0.90;;;0.60;;
13641;SDS011;6894;52.196;9.904;2023-04-24T06:40:01;1.13;;;0.47;;
13641;SDS011;6894;52.196;9.904;2023-04-24T06:42:28;0.80;;;0.70;;
13641;SDS011;6894;52.196;9.904;2023-04-24T06:44:55;1.83;;;0.77;;
13641;SDS011;6894;52.196;9.904;2023-04-24T06:47:22;0.80;;;0.80;;
13641;SDS011;6894;52.196;9.904;2023-04-24T06:49:50;1.70;;;0.90;;
13641;SDS011;6894;52.196;9.904;2023-04-24T06:52:17;1.43;;;0.93;;
13641;SDS011;6894;52.196;9.904;2023-04-24T06:54:44;0.87;;;0.83;;
13641;SDS011;6894;52.196;9.904;2023-04-24T06:57:11;1.20;;;1.10;;
13641;SDS011;6894;52.196;9.904;2023-04-24T06:59:38;1.95;;;1.00;;
13641;SDS011;6894;52.196;9.904;2023-04-24T07:02:04;1.70;;;1.20;;
13641;SDS011;6894;52.196;9.904;2023-04-24T07:04:31;1.93;;;1.20;;
13641;SDS011;6894;52.196;9.904;2023-04-24T07:06:59;1.17;;;1.00;;
13641;SDS011;6894;52.196;9.904;2023-04-24T07:09:26;1.10;;;1.00;;
13641;SDS011;6894;52.196;9.904;2023-04-24T07:11:53;1.47;;;1.20;;
13641;SDS011;6894;52.196;9.904;2023-04-24T07:14:21;1.80;;;1.13;;
13641;SDS011;6894;52.196;9.904;2023-04-24T07:16:48;2.00;;;1.40;;
13641;SDS011;6894;52.196;9.904;2023-04-24T07:19:15;2.13;;;2.00;;
13641;SDS011;6894;52.196;9.904;2023-04-24T07:21:42;1.93;;;1.60;;
13641;SDS011;6894;52.196;9.904;2023-04-24T07:24:10;2.10;;;1.90;;
13641;SDS011;6894;52.196;9.904;2023-04-24T07:26:37;2.83;;;2.17;;
13641;SDS011;6894;52.196;9.904;2023-04-24T07:29:05;2.80;;;2.10;;
13641;SDS011;6894;52.196;9.904;2023-04-24T07:31:32;3.60;;;2.37;;
13641;SDS011;6894;52.196;9.904;2023-04-24T07:33:58;3.20;;;2.90;;
13641;SDS011;6894;52.196;9.904;2023-04-24T07:36:25;2.23;;;2.03;;
13641;SDS011;6894;52.196;9.904;2023-04-24T07:38:53;3.23;;;2.93;;
13641;SDS011;6894;52.196;9.904;2023-04-24T07:41:21;3.70;;;3.40;;
13641;SDS011;6894;52.196;9.904;2023-04-24T07:43:49;4.37;;;3.97;;
13641;SDS011;6894;52.196;9.904;2023-04-24T07:46:16;3.80;;;3.00;;
13641;SDS011;6894;52.196;9.904;2023-04-24T07:48:42;3.97;;;3.67;;
13641;SDS011;6894;52.196;9.904;2023-04-24T07:51:11;4.07;;;3.77;;
13641;SDS011;6894;52.196;9.904;2023-04-24T07:53:38;5.27;;;4.30;;
13641;SDS011;6894;52.196;9.904;2023-04-24T07:56:05;4.40;;;4.00;;
13641;SDS011;6894;52.196;9.904;2023-04-24T07:58:33;5.40;;;4.90;;
13641;SDS011;6894;52.196;9.904;2023-04-24T08:01:00;7.83;;;4.80;;
13641;SDS011;6894;52.196;9.904;2023-04-24T08:03:27;5.67;;;4.93;;
13641;SDS011;6894;52.196;9.904;2023-04-24T08:05:54;6.20;;;5.60;;
13641;SDS011;6894;52.196;9.904;2023-04-24T08:08:21;5.30;;;4.80;;
13641;SDS011;6894;52.196;9.904;2023-04-24T08:10:48;6.10;;;5.50;;
13641;SDS011;6894;52.196;9.904;2023-04-24T08:13:15;4.63;;;4.23;;
13641;SDS011;6894;52.196;9.904;2023-04-24T08:15:43;6.00;;;4.73;;
13641;SDS011;6894;52.196;9.904;2023-04-24T08:18:10;6.77;;;5.00;;
13641;SDS011;6894;52.196;9.904;2023-04-24T08:20:38;5.40;;;4.60;;
13641;SDS011;6894;52.196;9.904;2023-04-24T08:23:05;5.77;;;4.67;;
13641;SDS011;6894;52.196;9.904;2023-04-24T08:25:32;4.90;;;4.40;;
13641;SDS011;6894;52.196;9.904;2023-04-24T08:28:00;5.33;;;4.60;;
13641;SDS011;6894;52.196;9.904;2023-04-24T08:30:28;4.67;;;4.23;;
13641;SDS011;6894;52.196;9.904;2023-04-24T08:32:56;4.93;;;4.43;;
13641;SDS011;6894;52.196;9.904;2023-04-24T08:35:23;5.10;;;4.60;;
13641;SDS011;6894;52.196;9.904;2023-04-24T08:37:50;6.00;;;4.70;;
13641;SDS011;6894;52.196;9.904;2023-04-24T08:40:18;6.13;;;4.57;;
13641;SDS011;6894;52.196;9.904;2023-04-24T08:42:48;4.70;;;4.30;;
13641;SDS011;6894;52.196;9.904;2023-04-24T08:45:18;4.83;;;3.97;;
13641;SDS011;6894;52.196;9.904;2023-04-24T08:47:45;3.70;;;3.40;;
13641;SDS011;6894;52.196;9.904;2023-04-24T08:50:15;3.90;;;3.50;;
13641;SDS011;6894;52.196;9.904;2023-04-24T08:52:43;3.80;;;3.40;;
13641;SDS011;6894;52.196;9.904;2023-04-24T08:55:10;3.33;;;3.00;;
13641;SDS011;6894;52.196;9.904;2023-04-24T08:57:37;3.03;;;2.83;;
13641;SDS011;6894;52.196;9.904;2023-04-24T09:00:05;3.07;;;2.77;;
13641;SDS011;6894;52.196;9.904;2023-04-24T09:02:33;3.53;;;3.07;;
13641;SDS011;6894;52.196;9.904;2023-04-24T09:05:00;4.60;;;3.17;;
13641;SDS011;6894;52.196;9.904;2023-04-24T09:07:30;3.37;;;2.90;;
13641;SDS011;6894;52.196;9.904;2023-04-24T09:10:01;3.70;;;3.40;;
13641;SDS011;6894;52.196;9.904;2023-04-24T09:12:28;3.63;;;3.17;;
13641;SDS011;6894;52.196;9.904;2023-04-24T09:14:54;4.73;;;4.20;;
13641;SDS011;6894;52.196;9.904;2023-04-24T09:17:23;4.53;;;4.13;;
13641;SDS011;6894;52.196;9.904;2023-04-24T09:19:52;4.03;;;3.70;;
13641;SDS011;6894;52.196;9.904;2023-04-24T09:22:18;3.17;;;2.87;;
13641;SDS011;6894;52.196;9.904;2023-04-24T09:24:48;2.70;;;2.50;;
13641;SDS011;6894;52.196;9.904;2023-04-24T09:27:28;3.50;;;2.80;;
13641;SDS011;6894;52.196;9.904;2023-04-24T09:29:54;2.97;;;2.67;;
13641;SDS011;6894;52.196;9.904;2023-04-24T09:32:22;3.70;;;3.00;;
13641;SDS011;6894;52.196;9.904;2023-04-24T09:35:04;5.03;;;3.40;;
13641;SDS011;6894;52.196;9.904;2023-04-24T09:37:34;3.37;;;2.67;;
13641;SDS011;6894;52.196;9.904;2023-04-24T09:40:10;2.97;;;2.70;;
13641;SDS011;6894;52.196;9.904;2023-04-24T09:42:38;3.30;;;2.60;;
13641;SDS011;6894;52.196;9.904;2023-04-24T09:45:08;2.37;;;2.13;;
13641;SDS011;6894;52.196;9.904;2023-04-24T09:47:36;2.47;;;1.60;;
13641;SDS011;6894;52.196;9.904;2023-04-24T09:50:09;1.93;;;1.40;;
13641;SDS011;6894;52.196;9.904;2023-04-24T09:52:39;2.73;;;1.53;;
13641;SDS011;6894;52.196;9.904;2023-04-24T09:55:11;1.90;;;1.60;;
13641;SDS011;6894;52.196;9.904;2023-04-24T09:57:46;3.33;;;1.83;;
13641;SDS011;6894;52.196;9.904;2023-04-24T10:00:17;2.23;;;2.03;;
13641;SDS011;6894;52.196;9.904;2023-04-24T10:02:45;2.20;;;1.83;;
13641;SDS011;6894;52.196;9.904;2023-04-24T10:05:17;1.73;;;1.63;;
13641;SDS011;6894;52.196;9.904;2023-04-24T10:07:43;1.70;;;1.60;;
13641;SDS011;6894;52.196;9.904;2023-04-24T10:10:12;1.60;;;1.50;;
13641;SDS011;6894;52.196;9.904;2023-04-24T10:12:39;2.00;;;1.60;;
13641;SDS011;6894;52.196;9.904;2023-04-24T10:15:07;2.17;;;1.60;;
13641;SDS011;6894;52.196;9.904;2023-04-24T10:17:37;2.60;;;1.50;;
13641;SDS011;6894;52.196;9.904;2023-04-24T10:20:05;3.43;;;1.60;;
13641;SDS011;6894;52.196;9.904;2023-04-24T10:22:33;2.27;;;1.60;;
13641;SDS011;6894;52.196;9.904;2023-04-24T10:25:01;1.80;;;1.50;;
13641;SDS011;6894;52.196;9.904;2023-04-24T10:27:32;2.07;;;1.87;;
13641;SDS011;6894;52.196;9.904;2023-04-24T10:30:01;1.97;;;1.53;;
13641;SDS011;6894;52.196;9.904;2023-04-24T10:32:28;2.90;;;1.67;;
13641;SDS011;6894;52.196;9.904;2023-04-24T10:34:55;3.17;;;1.73;;
13641;SDS011;6894;52.196;9.904;2023-04-24T10:37:23;1.87;;;1.60;;
13641;SDS011;6894;52.196;9.904;2023-04-24T10:39:50;2.07;;;1.87;;
13641;SDS011;6894;52.196;9.904;2023-04-24T10:42:19;2.27;;;1.60;;
13641;SDS011;6894;52.196;9.904;2023-04-24T10:44:48;2.80;;;1.77;;
13641;SDS011;6894;52.196;9.904;2023-04-24T10:47:15;3.10;;;1.70;;
13641;SDS011;6894;52.196;9.904;2023-04-24T10:49:42;3.10;;;2.00;;
13641;SDS011;6894;52.196;9.904;2023-04-24T10:52:09;2.10;;;1.90;;
13641;SDS011;6894;52.196;9.904;2023-04-24T10:54:41;3.67;;;2.10;;
13641;SDS011;6894;52.196;9.904;2023-04-24T10:57:27;1.70;;;1.60;;
13641;SDS011;6894;52.196;9.904;2023-04-24T11:00:13;2.30;;;1.73;;
13641;SDS011;6894;52.196;9.904;2023-04-24T11:02:45;2.23;;;1.83;;
13641;SDS011;6894;52.196;9.904;2023-04-24T11:05:18;2.83;;;2.07;;
13641;SDS011;6894;52.196;9.904;2023-04-24T11:10:41;2.60;;;1.70;;
13641;SDS011;6894;52.196;9.904;2023-04-24T11:13:10;2.30;;;1.20;;
13641;SDS011;6894;52.196;9.904;2023-04-24T11:15:42;1.30;;;0.97;;
13641;SDS011;6894;52.196;9.904;2023-04-24T11:18:12;1.10;;;0.90;;
13641;SDS011;6894;52.196;9.904;2023-04-24T11:20:41;1.00;;;0.90;;
13641;SDS011;6894;52.196;9.904;2023-04-24T11:23:09;1.23;;;0.90;;
13641;SDS011;6894;52.196;9.904;2023-04-24T11:25:39;1.10;;;0.93;;
13641;SDS011;6894;52.196;9.904;2023-04-24T11:28:05;0.80;;;0.80;;
13641;SDS011;6894;52.196;9.904;2023-04-24T11:30:32;0.80;;;0.80;;
13641;SDS011;6894;52.196;9.904;2023-04-24T11:33:04;0.90;;;0.90;;
13641;SDS011;6894;52.196;9.904;2023-04-24T11:35:34;0.77;;;0.77;;
13641;SDS011;6894;52.196;9.904;2023-04-24T11:38:05;1.10;;;1.00;;
13641;SDS011;6894;52.196;9.904;2023-04-24T11:40:33;1.43;;;1.17;;
13641;SDS011;6894;52.196;9.904;2023-04-24T11:43:00;1.80;;;1.30;;
13641;SDS011;6894;52.196;9.904;2023-04-24T11:45:29;1.43;;;1.33;;
13641;SDS011;6894;52.196;9.904;2023-04-24T11:47:57;0.93;;;0.90;;
13641;SDS011;6894;52.196;9.904;2023-04-24T11:50:26;1.90;;;1.70;;
13641;SDS011;6894;52.196;9.904;2023-04-24T11:52:54;1.07;;;0.90;;
13641;SDS011;6894;52.196;9.904;2023-04-24T11:55:28;1.27;;;1.13;;
13641;SDS011;6894;52.196;9.904;2023-04-24T11:57:56;1.30;;;1.10;;
13641;SDS011;6894;52.196;9.904;2023-04-24T12:00:24;1.10;;;1.00;;
13641;SDS011;6894;52.196;9.904;2023-04-24T12:03:03;2.03;;;1.00;;
13641;SDS011;6894;52.196;9.904;2023-04-24T12:05:32;1.07;;;0.97;;
13641;SDS011;6894;52.196;9.904;2023-04-24T12:07:59;1.53;;;1.17;;
13641;SDS011;6894;52.196;9.904;2023-04-24T12:10:27;1.07;;;1.03;;
13641;SDS011;6894;52.196;9.904;2023-04-24T12:12:55;1.57;;;1.07;;
13641;SDS011;6894;52.196;9.904;2023-04-24T12:15:23;0.97;;;0.93;;
13641;SDS011;6894;52.196;9.904;2023-04-24T12:17:50;1.10;;;1.00;;
13641;SDS011;6894;52.196;9.904;2023-04-24T12:20:23;2.07;;;1.30;;
13641;SDS011;6894;52.196;9.904;2023-04-24T12:22:52;1.20;;;1.10;;
13641;SDS011;6894;52.196;9.904;2023-04-24T12:25:21;1.37;;;0.60;;
13641;SDS011;6894;52.196;9.904;2023-04-24T12:27:52;0.30;;;0.30;;
13641;SDS011;6894;52.196;9.904;2023-04-24T12:30:19;0.50;;;0.50;;
13641;SDS011;6894;52.196;9.904;2023-04-24T12:32:48;0.50;;;0.50;;
13641;SDS011;6894;52.196;9.904;2023-04-24T12:35:18;1.13;;;0.70;;
13641;SDS011;6894;52.196;9.904;2023-04-24T12:37:46;2.63;;;0.80;;
13641;SDS011;6894;52.196;9.904;2023-04-24T12:40:16;0.60;;;0.60;;
13641;SDS011;6894;52.196;9.904;2023-04-24T12:42:44;1.13;;;1.03;;
13641;SDS011;6894;52.196;9.904;2023-04-24T12:45:12;0.63;;;0.63;;
13641;SDS011;6894;52.196;9.904;2023-04-24T12:47:41;0.70;;;0.70;;
13641;SDS011;6894;52.196;9.904;2023-04-24T12:50:08;0.60;;;0.60;;
13641;SDS011;6894;52.196;9.904;2023-04-24T12:52:37;0.70;;;0.70;;
13641;SDS011;6894;52.196;9.904;2023-04-24T12:55:04;1.13;;;0.70;;
13641;SDS011;6894;52.196;9.904;2023-04-24T12:57:35;0.60;;;0.60;;
13641;SDS011;6894;52.196;9.904;2023-04-24T13:00:03;1.27;;;0.70;;
13641;SDS011;6894;52.196;9.904;2023-04-24T13:02:32;0.90;;;0.70;;
13641;SDS011;6894;52.196;9.904;2023-04-24T13:05:00;1.60;;;0.83;;
13641;SDS011;6894;52.196;9.904;2023-04-24T13:07:27;0.90;;;0.70;;
13641;SDS011;6894;52.196;9.904;2023-04-24T13:09:54;0.97;;;0.93;;
13641;SDS011;6894;52.196;9.904;2023-04-24T13:12:21;0.87;;;0.87;;
13641;SDS011;6894;52.196;9.904;2023-04-24T13:14:51;1.10;;;1.00;;
13641;SDS011;6894;52.196;9.904;2023-04-24T13:17:18;0.60;;;0.60;;
13641;SDS011;6894;52.196;9.904;2023-04-24T13:19:45;1.27;;;1.17;;
13641;SDS011;6894;52.196;9.904;2023-04-24T13:22:12;1.03;;;0.80;;
13641;SDS011;6894;52.196;9.904;2023-04-24T13:24:39;0.73;;;0.73;;
13641;SDS011;6894;52.196;9.904;2023-04-24T13:27:06;0.50;;;0.50;;
13641;SDS011;6894;52.196;9.904;2023-04-24T13:29:34;0.40;;;0.40;;
13641;SDS011;6894;52.196;9.904;2023-04-24T13:32:02;0.47;;;0.40;;
13641;SDS011;6894;52.196;9.904;2023-04-24T13:34:29;0.40;;;0.40;;
13641;SDS011;6894;52.196;9.904;2023-04-24T13:36:56;1.33;;;0.50;;
13641;SDS011;6894;52.196;9.904;2023-04-24T13:39:24;0.47;;;0.40;;
13641;SDS011;6894;52.196;9.904;2023-04-24T13:41:51;0.53;;;0.53;;
13641;SDS011;6894;52.196;9.904;2023-04-24T13:44:19;0.30;;;0.30;;
13641;SDS011;6894;52.196;9.904;2023-04-24T13:46:47;0.60;;;0.40;;
13641;SDS011;6894;52.196;9.904;2023-04-24T13:49:16;0.20;;;0.20;;
13641;SDS011;6894;52.196;9.904;2023-04-24T13:51:44;0.47;;;0.43;;
13641;SDS011;6894;52.196;9.904;2023-04-24T13:54:11;1.00;;;0.50;;
13641;SDS011;6894;52.196;9.904;2023-04-24T13:56:38;1.13;;;0.30;;
13641;SDS011;6894;52.196;9.904;2023-04-24T13:59:05;0.63;;;0.20;;
13641;SDS011;6894;52.196;9.904;2023-04-24T14:01:32;0.30;;;0.20;;
13641;SDS011;6894;52.196;9.904;2023-04-24T14:03:59;0.77;;;0.20;;
13641;SDS011;6894;52.196;9.904;2023-04-24T14:06:27;0.37;;;0.30;;
13641;SDS011;6894;52.196;9.904;2023-04-24T14:08:54;0.77;;;0.20;;
13641;SDS011;6894;52.196;9.904;2023-04-24T14:11:20;0.20;;;0.20;;
13641;SDS011;6894;52.196;9.904;2023-04-24T14:13:47;0.30;;;0.30;;
13641;SDS011;6894;52.196;9.904;2023-04-24T14:16:14;0.60;;;0.50;;
13641;SDS011;6894;52.196;9.904;2023-04-24T14:18:41;0.20;;;0.20;;
13641;SDS011;6894;52.196;9.904;2023-04-24T14:21:08;0.93;;;0.60;;
13641;SDS011;6894;52.196;9.904;2023-04-24T14:23:36;0.83;;;0.70;;
13641;SDS011;6894;52.196;9.904;2023-04-24T14:26:03;0.40;;;0.40;;
13641;SDS011;6894;52.196;9.904;2023-04-24T14:28:29;0.80;;;0.70;;
13641;SDS011;6894;52.196;9.904;2023-04-24T14:30:57;0.53;;;0.53;;
13641;SDS011;6894;52.196;9.904;2023-04-24T14:33:23;0.57;;;0.50;;
13641;SDS011;6894;52.196;9.904;2023-04-24T14:35:50;1.23;;;0.83;;
13641;SDS011;6894;52.196;9.904;2023-04-24T14:38:17;1.37;;;0.70;;
13641;SDS011;6894;52.196;9.904;2023-04-24T14:40:45;1.70;;;1.00;;
13641;SDS011;6894;52.196;9.904;2023-04-24T14:43:12;0.70;;;0.70;;
13641;SDS011;6894;52.196;9.904;2023-04-24T14:45:39;1.30;;;0.90;;
13641;SDS011;6894;52.196;9.904;2023-04-24T14:48:06;2.57;;;1.47;;
13641;SDS011;6894;52.196;9.904;2023-04-24T14:50:34;2.47;;;1.40;;
13641;SDS011;6894;52.196;9.904;2023-04-24T14:53:00;0.90;;;0.90;;
13641;SDS011;6894;52.196;9.904;2023-04-24T14:55:27;1.70;;;1.10;;
13641;SDS011;6894;52.196;9.904;2023-04-24T14:57:55;1.33;;;1.20;;
13641;SDS011;6894;52.196;9.904;2023-04-24T15:00:22;2.33;;;1.50;;
13641;SDS011;6894;52.196;9.904;2023-04-24T15:02:49;1.70;;;1.47;;
13641;SDS011;6894;52.196;9.904;2023-04-24T15:05:16;1.70;;;1.60;;
13641;SDS011;6894;52.196;9.904;2023-04-24T15:07:43;3.50;;;2.27;;